sensor_id;sensor_type;location;lat;lon;timestamp;temperature;humidity
42085;DHT22;27746;52.228;20.890;2023-08-08T00:01:56;15.20;99.90
42085;DHT22;27746;52.228;20.890;2023-08-08T00:04:23;15.20;99.90
42085;DHT22;27746;52.228;20.890;2023-08-08T00:06:50;15.20;99.90
42085;DHT22;27746;52.228;20.890;2023-08-08T00:09:16;15.20;99.90
42085;DHT22;27746;52.228;20.890;2023-08-08T00:11:43;15.20;99.90
42085;DHT22;27746;52.228;20.890;2023-08-08T00:14:10;15.20;99.90
42085;DHT22;27746;52.228;20.890;2023-08-08T00:16:38;15.20;99.90
42085;DHT22;27746;52.228;20.890;2023-08-08T00:19:05;15.20;99.90
42085;DHT22;27746;52.228;20.890;2023-08-08T00:21:32;15.10;99.90
42085;DHT22;27746;52.228;20.890;2023-08-08T00:23:59;15.10;99.90
42085;DHT22;27746;52.228;20.890;2023-08-08T00:26:26;15.10;99.90
42085;DHT22;27746;52.228;20.890;2023-08-08T00:28:52;15.10;99.90
42085;DHT22;27746;52.228;20.890;2023-08-08T00:31:19;15.10;99.90
42085;DHT22;27746;52.228;20.890;2023-08-08T00:33:47;15.10;99.90
42085;DHT22;27746;52.228;20.890;2023-08-08T00:36:14;15.00;99.90
42085;DHT22;27746;52.228;20.890;2023-08-08T00:38:41;15.00;99.90
42085;DHT22;27746;52.228;20.890;2023-08-08T00:41:08;15.00;99.90
42085;DHT22;27746;52.228;20.890;2023-08-08T00:43:35;14.90;99.90
42085;DHT22;27746;52.228;20.890;2023-08-08T00:46:02;14.90;99.90
42085;DHT22;27746;52.228;20.890;2023-08-08T00:48:28;14.90;99.90
42085;DHT22;27746;52.228;20.890;2023-08-08T00:50:57;14.90;99.90
42085;DHT22;27746;52.228;20.890;2023-08-08T00:53:23;14.90;99.90
42085;DHT22;27746;52.228;20.890;2023-08-08T00:55:52;14.90;99.90
42085;DHT22;27746;52.228;20.890;2023-08-08T00:58:19;14.90;99.90
42085;DHT22;27746;52.228;20.890;2023-08-08T01:00:46;14.80;99.90
42085;DHT22;27746;52.228;20.890;2023-08-08T01:03:13;14.80;99.90
42085;DHT22;27746;52.228;20.890;2023-08-08T01:05:45;14.80;99.90
42085;DHT22;27746;52.228;20.890;2023-08-08T01:08:17;14.80;99.90
42085;DHT22;27746;52.228;20.890;2023-08-08T01:10:46;14.70;99.90
42085;DHT22;27746;52.228;20.890;2023-08-08T01:13:15;14.70;99.90
42085;DHT22;27746;52.228;20.890;2023-08-08T01:15:45;14.70;99.90
42085;DHT22;27746;52.228;20.890;2023-08-08T01:18:13;14.60;99.90
42085;DHT22;27746;52.228;20.890;2023-08-08T01:20:42;14.60;99.90
42085;DHT22;27746;52.228;20.890;2023-08-08T01:23:14;14.50;99.90
42085;DHT22;27746;52.228;20.890;2023-08-08T01:25:44;14.50;99.90
42085;DHT22;27746;52.228;20.890;2023-08-08T01:28:11;14.50;99.90
42085;DHT22;27746;52.228;20.890;2023-08-08T01:30:38;14.40;99.90
42085;DHT22;27746;52.228;20.890;2023-08-08T01:33:05;14.40;99.90
42085;DHT22;27746;52.228;20.890;2023-08-08T01:35:37;14.40;99.90
42085;DHT22;27746;52.228;20.890;2023-08-08T01:38:10;14.40;99.90
42085;DHT22;27746;52.228;20.890;2023-08-08T01:40:39;14.40;99.90
42085;DHT22;27746;52.228;20.890;2023-08-08T01:43:10;14.30;99.90
42085;DHT22;27746;52.228;20.890;2023-08-08T01:45:37;14.30;99.90
42085;DHT22;27746;52.228;20.890;2023-08-08T01:48:08;14.30;99.90
42085;DHT22;27746;52.228;20.890;2023-08-08T01:50:35;14.20;99.90
42085;DHT22;27746;52.228;20.890;2023-08-08T01:53:02;14.30;99.90
42085;DHT22;27746;52.228;20.890;2023-08-08T01:55:29;14.30;99.90
42085;DHT22;27746;52.228;20.890;2023-08-08T01:57:56;14.30;99.90
42085;DHT22;27746;52.228;20.890;2023-08-08T02:00:25;14.20;99.90
42085;DHT22;27746;52.228;20.890;2023-08-08T02:02:51;14.20;99.90
42085;DHT22;27746;52.228;20.890;2023-08-08T02:05:18;14.20;99.90
42085;DHT22;27746;52.228;20.890;2023-08-08T02:07:45;14.20;99.90
42085;DHT22;27746;52.228;20.890;2023-08-08T02:10:12;14.20;99.90
42085;DHT22;27746;52.228;20.890;2023-08-08T02:12:39;14.20;99.90
42085;DHT22;27746;52.228;20.890;2023-08-08T02:15:06;14.20;99.90
42085;DHT22;27746;52.228;20.890;2023-08-08T02:17:37;14.10;99.90
42085;DHT22;27746;52.228;20.890;2023-08-08T02:20:05;14.20;99.90
42085;DHT22;27746;52.228;20.890;2023-08-08T02:22:32;14.10;99.90
42085;DHT22;27746;52.228;20.890;2023-08-08T02:24:59;14.00;99.90
42085;DHT22;27746;52.228;20.890;2023-08-08T02:27:26;14.10;99.90
42085;DHT22;27746;52.228;20.890;2023-08-08T02:29:52;14.00;99.90
42085;DHT22;27746;52.228;20.890;2023-08-08T02:32:19;14.00;99.90
42085;DHT22;27746;52.228;20.890;2023-08-08T02:34:47;14.00;99.90
42085;DHT22;27746;52.228;20.890;2023-08-08T02:37:14;14.00;99.90
42085;DHT22;27746;52.228;20.890;2023-08-08T02:39:42;13.90;99.90
42085;DHT22;27746;52.228;20.890;2023-08-08T02:42:09;13.90;99.90
42085;DHT22;27746;52.228;20.890;2023-08-08T02:44:36;13.90;99.90
42085;DHT22;27746;52.228;20.890;2023-08-08T02:47:03;13.80;99.90
42085;DHT22;27746;52.228;20.890;2023-08-08T02:49:30;13.80;99.90
42085;DHT22;27746;52.228;20.890;2023-08-08T02:52:00;13.80;99.90
42085;DHT22;27746;52.228;20.890;2023-08-08T02:54:27;13.70;99.90
42085;DHT22;27746;52.228;20.890;2023-08-08T02:56:55;13.70;99.90
42085;DHT22;27746;52.228;20.890;2023-08-08T02:59:22;13.70;99.90
42085;DHT22;27746;52.228;20.890;2023-08-08T03:01:49;13.70;99.90
42085;DHT22;27746;52.228;20.890;2023-08-08T03:04:16;13.60;99.90
42085;DHT22;27746;52.228;20.890;2023-08-08T03:06:43;13.60;99.90
42085;DHT22;27746;52.228;20.890;2023-08-08T03:09:11;13.60;99.90
42085;DHT22;27746;52.228;20.890;2023-08-08T03:11:38;13.60;99.90
42085;DHT22;27746;52.228;20.890;2023-08-08T03:14:07;13.50;99.90
42085;DHT22;27746;52.228;20.890;2023-08-08T03:16:33;13.50;99.90
42085;DHT22;27746;52.228;20.890;2023-08-08T03:19:00;13.50;99.90
42085;DHT22;27746;52.228;20.890;2023-08-08T03:21:27;13.50;99.90
42085;DHT22;27746;52.228;20.890;2023-08-08T03:23:54;13.40;99.90
42085;DHT22;27746;52.228;20.890;2023-08-08T03:26:22;13.40;99.90
42085;DHT22;27746;52.228;20.890;2023-08-08T03:28:49;13.40;99.90
42085;DHT22;27746;52.228;20.890;2023-08-08T03:31:18;13.40;99.90
42085;DHT22;27746;52.228;20.890;2023-08-08T03:33:46;13.40;99.90
42085;DHT22;27746;52.228;20.890;2023-08-08T03:36:13;13.40;99.90
42085;DHT22;27746;52.228;20.890;2023-08-08T03:38:40;13.40;99.90
42085;DHT22;27746;52.228;20.890;2023-08-08T03:41:09;13.40;99.90
42085;DHT22;27746;52.228;20.890;2023-08-08T03:43:38;13.40;99.90
42085;DHT22;27746;52.228;20.890;2023-08-08T03:46:05;13.40;99.90
42085;DHT22;27746;52.228;20.890;2023-08-08T03:48:32;13.40;99.90
42085;DHT22;27746;52.228;20.890;2023-08-08T03:50:59;13.40;99.90
42085;DHT22;27746;52.228;20.890;2023-08-08T03:53:26;13.40;99.90
42085;DHT22;27746;52.228;20.890;2023-08-08T03:55:52;13.40;99.90
42085;DHT22;27746;52.228;20.890;2023-08-08T03:58:19;13.40;99.90
42085;DHT22;27746;52.228;20.890;2023-08-08T04:00:47;13.40;99.90
42085;DHT22;27746;52.228;20.890;2023-08-08T04:03:15;13.40;99.90
42085;DHT22;27746;52.228;20.890;2023-08-08T04:05:44;13.40;99.90
42085;DHT22;27746;52.228;20.890;2023-08-08T04:08:13;13.50;99.90
42085;DHT22;27746;52.228;20.890;2023-08-08T04:10:39;13.40;99.90
42085;DHT22;27746;52.228;20.890;2023-08-08T04:13:06;13.50;99.90
42085;DHT22;27746;52.228;20.890;2023-08-08T04:15:33;13.40;99.90
42085;DHT22;27746;52.228;20.890;2023-08-08T04:18:02;13.40;99.90
42085;DHT22;27746;52.228;20.890;2023-08-08T04:20:28;13.50;99.90
42085;DHT22;27746;52.228;20.890;2023-08-08T04:22:55;13.50;99.90
42085;DHT22;27746;52.228;20.890;2023-08-08T04:25:22;13.50;99.90
42085;DHT22;27746;52.228;20.890;2023-08-08T04:27:49;13.60;99.90
42085;DHT22;27746;52.228;20.890;2023-08-08T04:30:16;13.60;99.90
42085;DHT22;27746;52.228;20.890;2023-08-08T04:32:43;13.70;99.90
42085;DHT22;27746;52.228;20.890;2023-08-08T04:35:11;13.70;99.90
42085;DHT22;27746;52.228;20.890;2023-08-08T04:37:38;13.80;99.90
42085;DHT22;27746;52.228;20.890;2023-08-08T04:40:07;13.80;99.90
42085;DHT22;27746;52.228;20.890;2023-08-08T04:42:34;13.90;99.90
42085;DHT22;27746;52.228;20.890;2023-08-08T04:45:01;13.90;99.90
42085;DHT22;27746;52.228;20.890;2023-08-08T04:47:28;14.00;99.90
42085;DHT22;27746;52.228;20.890;2023-08-08T04:49:55;14.00;99.90
42085;DHT22;27746;52.228;20.890;2023-08-08T04:52:23;14.10;99.90
42085;DHT22;27746;52.228;20.890;2023-08-08T04:54:50;14.20;99.90
42085;DHT22;27746;52.228;20.890;2023-08-08T04:57:16;14.30;99.90
42085;DHT22;27746;52.228;20.890;2023-08-08T04:59:44;14.30;99.90
42085;DHT22;27746;52.228;20.890;2023-08-08T05:02:10;14.40;99.90
42085;DHT22;27746;52.228;20.890;2023-08-08T05:04:37;14.40;99.80
42085;DHT22;27746;52.228;20.890;2023-08-08T05:07:04;14.40;99.60
42085;DHT22;27746;52.228;20.890;2023-08-08T05:09:33;14.50;99.70
42085;DHT22;27746;52.228;20.890;2023-08-08T05:12:00;14.50;99.70
42085;DHT22;27746;52.228;20.890;2023-08-08T05:14:26;14.50;99.60
42085;DHT22;27746;52.228;20.890;2023-08-08T05:16:53;14.60;99.80
42085;DHT22;27746;52.228;20.890;2023-08-08T05:19:20;14.60;99.20
42085;DHT22;27746;52.228;20.890;2023-08-08T05:21:47;14.70;99.20
42085;DHT22;27746;52.228;20.890;2023-08-08T05:24:14;14.70;99.00
42085;DHT22;27746;52.228;20.890;2023-08-08T05:26:42;14.80;99.20
42085;DHT22;27746;52.228;20.890;2023-08-08T05:29:08;14.80;98.80
42085;DHT22;27746;52.228;20.890;2023-08-08T05:31:35;14.90;98.90
42085;DHT22;27746;52.228;20.890;2023-08-08T05:34:02;15.00;98.80
42085;DHT22;27746;52.228;20.890;2023-08-08T05:36:29;15.00;98.40
42085;DHT22;27746;52.228;20.890;2023-08-08T05:38:56;15.00;98.40
42085;DHT22;27746;52.228;20.890;2023-08-08T05:41:23;15.00;98.30
42085;DHT22;27746;52.228;20.890;2023-08-08T05:43:51;15.00;98.10
42085;DHT22;27746;52.228;20.890;2023-08-08T05:46:18;14.90;98.30
42085;DHT22;27746;52.228;20.890;2023-08-08T05:48:44;15.00;98.40
42085;DHT22;27746;52.228;20.890;2023-08-08T05:51:12;15.00;98.50
42085;DHT22;27746;52.228;20.890;2023-08-08T05:53:38;15.00;98.30
42085;DHT22;27746;52.228;20.890;2023-08-08T05:56:05;15.00;98.10
42085;DHT22;27746;52.228;20.890;2023-08-08T05:58:32;15.00;98.10
42085;DHT22;27746;52.228;20.890;2023-08-08T06:01:00;15.00;98.10
42085;DHT22;27746;52.228;20.890;2023-08-08T06:03:28;15.00;98.20
42085;DHT22;27746;52.228;20.890;2023-08-08T06:05:55;15.00;98.20
42085;DHT22;27746;52.228;20.890;2023-08-08T06:08:21;15.10;98.10
42085;DHT22;27746;52.228;20.890;2023-08-08T06:10:48;15.10;97.80
42085;DHT22;27746;52.228;20.890;2023-08-08T06:13:15;15.20;97.80
42085;DHT22;27746;52.228;20.890;2023-08-08T06:15:42;15.20;97.50
42085;DHT22;27746;52.228;20.890;2023-08-08T06:18:10;15.20;97.30
42085;DHT22;27746;52.228;20.890;2023-08-08T06:20:37;15.20;97.20
42085;DHT22;27746;52.228;20.890;2023-08-08T06:23:04;15.20;97.30
42085;DHT22;27746;52.228;20.890;2023-08-08T06:25:31;15.20;97.40
42085;DHT22;27746;52.228;20.890;2023-08-08T06:27:57;15.30;97.70
42085;DHT22;27746;52.228;20.890;2023-08-08T06:30:24;15.20;97.40
42085;DHT22;27746;52.228;20.890;2023-08-08T06:32:51;15.30;97.40
42085;DHT22;27746;52.228;20.890;2023-08-08T06:35:19;15.30;97.10
42085;DHT22;27746;52.228;20.890;2023-08-08T06:37:46;15.40;97.00
42085;DHT22;27746;52.228;20.890;2023-08-08T06:40:13;15.40;96.80
42085;DHT22;27746;52.228;20.890;2023-08-08T06:42:40;15.50;97.00
42085;DHT22;27746;52.228;20.890;2023-08-08T06:45:07;15.60;97.00
42085;DHT22;27746;52.228;20.890;2023-08-08T06:47:35;15.60;96.50
42085;DHT22;27746;52.228;20.890;2023-08-08T06:50:02;15.70;96.30
42085;DHT22;27746;52.228;20.890;2023-08-08T06:52:30;15.70;96.30
42085;DHT22;27746;52.228;20.890;2023-08-08T06:54:57;15.70;96.00
42085;DHT22;27746;52.228;20.890;2023-08-08T06:57:24;15.80;95.90
42085;DHT22;27746;52.228;20.890;2023-08-08T06:59:51;15.80;96.00
42085;DHT22;27746;52.228;20.890;2023-08-08T07:02:19;15.90;95.70
42085;DHT22;27746;52.228;20.890;2023-08-08T07:04:46;15.90;95.70
42085;DHT22;27746;52.228;20.890;2023-08-08T07:07:13;16.10;96.00
42085;DHT22;27746;52.228;20.890;2023-08-08T07:09:41;16.20;95.30
42085;DHT22;27746;52.228;20.890;2023-08-08T07:12:09;16.20;94.60
42085;DHT22;27746;52.228;20.890;2023-08-08T07:14:36;16.20;94.60
42085;DHT22;27746;52.228;20.890;2023-08-08T07:17:03;16.30;95.00
42085;DHT22;27746;52.228;20.890;2023-08-08T07:19:30;16.30;94.40
42085;DHT22;27746;52.228;20.890;2023-08-08T07:21:57;16.30;94.30
42085;DHT22;27746;52.228;20.890;2023-08-08T07:24:24;16.30;94.40
42085;DHT22;27746;52.228;20.890;2023-08-08T07:26:55;16.30;94.10
42085;DHT22;27746;52.228;20.890;2023-08-08T07:29:22;16.30;94.20
42085;DHT22;27746;52.228;20.890;2023-08-08T07:31:50;16.30;94.20
42085;DHT22;27746;52.228;20.890;2023-08-08T07:34:17;16.30;94.40
42085;DHT22;27746;52.228;20.890;2023-08-08T07:36:44;16.50;93.80
42085;DHT22;27746;52.228;20.890;2023-08-08T07:39:11;16.50;93.60
42085;DHT22;27746;52.228;20.890;2023-08-08T07:41:38;16.60;93.90
42085;DHT22;27746;52.228;20.890;2023-08-08T07:44:06;16.60;93.70
42085;DHT22;27746;52.228;20.890;2023-08-08T07:46:33;16.70;93.20
42085;DHT22;27746;52.228;20.890;2023-08-08T07:49:01;16.80;93.40
42085;DHT22;27746;52.228;20.890;2023-08-08T07:51:29;16.80;93.20
42085;DHT22;27746;52.228;20.890;2023-08-08T07:53:56;16.90;93.10
42085;DHT22;27746;52.228;20.890;2023-08-08T07:56:23;17.00;93.20
42085;DHT22;27746;52.228;20.890;2023-08-08T07:58:50;17.10;92.90
42085;DHT22;27746;52.228;20.890;2023-08-08T08:01:18;17.10;92.60
42085;DHT22;27746;52.228;20.890;2023-08-08T08:03:45;17.10;92.30
42085;DHT22;27746;52.228;20.890;2023-08-08T08:06:12;17.10;91.70
42085;DHT22;27746;52.228;20.890;2023-08-08T08:08:39;17.10;91.90
42085;DHT22;27746;52.228;20.890;2023-08-08T08:11:06;17.10;92.20
42085;DHT22;27746;52.228;20.890;2023-08-08T08:13:33;17.20;91.60
42085;DHT22;27746;52.228;20.890;2023-08-08T08:16:01;17.30;91.70
42085;DHT22;27746;52.228;20.890;2023-08-08T08:18:29;17.30;91.50
42085;DHT22;27746;52.228;20.890;2023-08-08T08:20:56;17.30;91.20
42085;DHT22;27746;52.228;20.890;2023-08-08T08:23:23;17.30;91.10
42085;DHT22;27746;52.228;20.890;2023-08-08T08:25:50;17.40;91.30
42085;DHT22;27746;52.228;20.890;2023-08-08T08:28:17;17.50;91.40
42085;DHT22;27746;52.228;20.890;2023-08-08T08:30:44;17.60;91.20
42085;DHT22;27746;52.228;20.890;2023-08-08T08:33:11;17.70;90.90
42085;DHT22;27746;52.228;20.890;2023-08-08T08:35:39;17.70;90.60
42085;DHT22;27746;52.228;20.890;2023-08-08T08:38:06;17.70;90.20
42085;DHT22;27746;52.228;20.890;2023-08-08T08:40:36;17.70;90.70
42085;DHT22;27746;52.228;20.890;2023-08-08T08:43:05;17.80;90.90
42085;DHT22;27746;52.228;20.890;2023-08-08T08:45:35;18.00;90.90
42085;DHT22;27746;52.228;20.890;2023-08-08T08:48:04;18.20;90.40
42085;DHT22;27746;52.228;20.890;2023-08-08T08:50:33;18.20;89.10
42085;DHT22;27746;52.228;20.890;2023-08-08T08:53:02;18.20;87.80
42085;DHT22;27746;52.228;20.890;2023-08-08T08:55:30;18.20;89.40
42085;DHT22;27746;52.228;20.890;2023-08-08T08:57:57;18.30;88.30
42085;DHT22;27746;52.228;20.890;2023-08-08T09:00:24;18.20;87.90
42085;DHT22;27746;52.228;20.890;2023-08-08T09:02:52;18.10;87.00
42085;DHT22;27746;52.228;20.890;2023-08-08T09:05:20;18.10;88.10
42085;DHT22;27746;52.228;20.890;2023-08-08T09:07:48;18.20;88.30
42085;DHT22;27746;52.228;20.890;2023-08-08T09:10:19;18.30;89.20
42085;DHT22;27746;52.228;20.890;2023-08-08T09:12:46;18.40;87.70
42085;DHT22;27746;52.228;20.890;2023-08-08T09:15:14;18.50;86.70
42085;DHT22;27746;52.228;20.890;2023-08-08T09:17:42;18.50;85.70
42085;DHT22;27746;52.228;20.890;2023-08-08T09:20:11;18.50;84.70
42085;DHT22;27746;52.228;20.890;2023-08-08T09:22:39;18.40;83.70
42085;DHT22;27746;52.228;20.890;2023-08-08T09:25:06;18.40;84.40
42085;DHT22;27746;52.228;20.890;2023-08-08T09:27:35;18.50;84.70
42085;DHT22;27746;52.228;20.890;2023-08-08T09:30:02;18.50;83.60
42085;DHT22;27746;52.228;20.890;2023-08-08T09:32:30;18.60;83.40
42085;DHT22;27746;52.228;20.890;2023-08-08T09:34:57;18.60;81.90
42085;DHT22;27746;52.228;20.890;2023-08-08T09:37:24;18.50;81.10
42085;DHT22;27746;52.228;20.890;2023-08-08T09:39:58;18.50;82.80
42085;DHT22;27746;52.228;20.890;2023-08-08T09:42:26;18.40;80.30
42085;DHT22;27746;52.228;20.890;2023-08-08T09:44:56;18.40;80.70
42085;DHT22;27746;52.228;20.890;2023-08-08T09:47:24;18.30;81.10
42085;DHT22;27746;52.228;20.890;2023-08-08T09:49:58;18.30;81.90
42085;DHT22;27746;52.228;20.890;2023-08-08T09:52:27;18.30;82.10
42085;DHT22;27746;52.228;20.890;2023-08-08T09:54:54;18.30;81.50
42085;DHT22;27746;52.228;20.890;2023-08-08T09:57:21;18.30;81.80
42085;DHT22;27746;52.228;20.890;2023-08-08T09:59:48;18.30;81.70
42085;DHT22;27746;52.228;20.890;2023-08-08T10:02:18;18.30;82.50
42085;DHT22;27746;52.228;20.890;2023-08-08T10:04:45;18.30;79.70
42085;DHT22;27746;52.228;20.890;2023-08-08T10:07:12;18.50;80.50
42085;DHT22;27746;52.228;20.890;2023-08-08T10:09:39;18.70;81.30
42085;DHT22;27746;52.228;20.890;2023-08-08T10:12:07;19.00;81.40
42085;DHT22;27746;52.228;20.890;2023-08-08T10:14:36;19.40;79.40
42085;DHT22;27746;52.228;20.890;2023-08-08T10:17:04;19.50;77.90
42085;DHT22;27746;52.228;20.890;2023-08-08T10:19:33;19.60;78.60
42085;DHT22;27746;52.228;20.890;2023-08-08T10:22:04;19.60;77.40
42085;DHT22;27746;52.228;20.890;2023-08-08T10:24:33;19.60;77.20
42085;DHT22;27746;52.228;20.890;2023-08-08T10:27:01;19.50;76.60
42085;DHT22;27746;52.228;20.890;2023-08-08T10:29:30;19.30;76.30
42085;DHT22;27746;52.228;20.890;2023-08-08T10:31:59;19.10;76.50
42085;DHT22;27746;52.228;20.890;2023-08-08T10:34:36;19.00;76.00
42085;DHT22;27746;52.228;20.890;2023-08-08T10:37:04;19.00;74.70
42085;DHT22;27746;52.228;20.890;2023-08-08T10:39:31;19.10;74.00
42085;DHT22;27746;52.228;20.890;2023-08-08T10:42:02;19.10;72.60
42085;DHT22;27746;52.228;20.890;2023-08-08T10:44:30;19.20;73.50
42085;DHT22;27746;52.228;20.890;2023-08-08T10:46:57;19.20;73.90
42085;DHT22;27746;52.228;20.890;2023-08-08T10:49:24;19.20;74.50
42085;DHT22;27746;52.228;20.890;2023-08-08T10:51:52;19.20;75.00
42085;DHT22;27746;52.228;20.890;2023-08-08T10:54:23;19.20;75.80
42085;DHT22;27746;52.228;20.890;2023-08-08T10:56:54;19.30;75.60
42085;DHT22;27746;52.228;20.890;2023-08-08T10:59:22;19.30;74.90
42085;DHT22;27746;52.228;20.890;2023-08-08T11:01:50;19.40;74.50
42085;DHT22;27746;52.228;20.890;2023-08-08T11:04:19;19.50;73.80
42085;DHT22;27746;52.228;20.890;2023-08-08T11:06:46;19.50;73.60
42085;DHT22;27746;52.228;20.890;2023-08-08T11:09:17;19.40;73.10
42085;DHT22;27746;52.228;20.890;2023-08-08T11:11:44;19.40;74.00
42085;DHT22;27746;52.228;20.890;2023-08-08T11:14:13;19.60;74.10
42085;DHT22;27746;52.228;20.890;2023-08-08T11:16:40;19.90;73.30
42085;DHT22;27746;52.228;20.890;2023-08-08T11:19:08;20.10;71.10
42085;DHT22;27746;52.228;20.890;2023-08-08T11:21:36;20.20;70.80
42085;DHT22;27746;52.228;20.890;2023-08-08T11:24:05;20.20;69.80
42085;DHT22;27746;52.228;20.890;2023-08-08T11:26:34;20.20;69.20
42085;DHT22;27746;52.228;20.890;2023-08-08T11:29:02;20.10;69.20
42085;DHT22;27746;52.228;20.890;2023-08-08T11:31:31;20.00;69.70
42085;DHT22;27746;52.228;20.890;2023-08-08T11:33:59;20.00;71.00
42085;DHT22;27746;52.228;20.890;2023-08-08T11:36:26;20.10;70.80
42085;DHT22;27746;52.228;20.890;2023-08-08T11:38:56;20.10;70.30
42085;DHT22;27746;52.228;20.890;2023-08-08T11:41:24;20.20;70.90
42085;DHT22;27746;52.228;20.890;2023-08-08T11:43:53;20.30;69.50
42085;DHT22;27746;52.228;20.890;2023-08-08T11:46:23;20.30;69.80
42085;DHT22;27746;52.228;20.890;2023-08-08T11:48:50;20.40;70.40
42085;DHT22;27746;52.228;20.890;2023-08-08T11:51:16;20.50;69.90
42085;DHT22;27746;52.228;20.890;2023-08-08T11:53:50;20.70;68.80
42085;DHT22;27746;52.228;20.890;2023-08-08T11:56:19;20.80;69.90
42085;DHT22;27746;52.228;20.890;2023-08-08T11:58:49;20.90;68.60
42085;DHT22;27746;52.228;20.890;2023-08-08T12:01:19;21.00;67.40
42085;DHT22;27746;52.228;20.890;2023-08-08T12:03:46;20.90;66.60
42085;DHT22;27746;52.228;20.890;2023-08-08T12:06:13;20.80;67.00
42085;DHT22;27746;52.228;20.890;2023-08-08T12:08:41;20.70;66.80
42085;DHT22;27746;52.228;20.890;2023-08-08T12:11:09;20.80;68.00
42085;DHT22;27746;52.228;20.890;2023-08-08T12:13:37;20.90;68.40
42085;DHT22;27746;52.228;20.890;2023-08-08T12:16:06;21.00;67.30
42085;DHT22;27746;52.228;20.890;2023-08-08T12:18:36;20.90;66.50
42085;DHT22;27746;52.228;20.890;2023-08-08T12:21:03;20.70;66.50
42085;DHT22;27746;52.228;20.890;2023-08-08T12:23:30;20.60;67.10
42085;DHT22;27746;52.228;20.890;2023-08-08T12:25:57;20.50;67.30
42085;DHT22;27746;52.228;20.890;2023-08-08T12:28:25;20.60;67.60
42085;DHT22;27746;52.228;20.890;2023-08-08T12:30:52;20.60;67.50
42085;DHT22;27746;52.228;20.890;2023-08-08T12:33:18;20.70;67.60
42085;DHT22;27746;52.228;20.890;2023-08-08T12:35:47;20.90;66.90
42085;DHT22;27746;52.228;20.890;2023-08-08T12:38:14;21.00;67.10
42085;DHT22;27746;52.228;20.890;2023-08-08T12:40:41;21.00;67.40
42085;DHT22;27746;52.228;20.890;2023-08-08T12:43:10;21.00;67.20
42085;DHT22;27746;52.228;20.890;2023-08-08T12:45:40;21.10;67.80
42085;DHT22;27746;52.228;20.890;2023-08-08T12:48:06;21.20;68.40
42085;DHT22;27746;52.228;20.890;2023-08-08T12:50:33;21.30;66.30
42085;DHT22;27746;52.228;20.890;2023-08-08T12:53:01;21.30;64.90
42085;DHT22;27746;52.228;20.890;2023-08-08T12:55:29;21.40;65.60
42085;DHT22;27746;52.228;20.890;2023-08-08T12:57:56;21.50;66.40
42085;DHT22;27746;52.228;20.890;2023-08-08T13:00:23;21.70;65.20
42085;DHT22;27746;52.228;20.890;2023-08-08T13:02:50;21.80;64.20
42085;DHT22;27746;52.228;20.890;2023-08-08T13:05:17;21.70;64.80
42085;DHT22;27746;52.228;20.890;2023-08-08T13:07:44;21.70;65.70
42085;DHT22;27746;52.228;20.890;2023-08-08T13:10:12;21.70;65.70
42085;DHT22;27746;52.228;20.890;2023-08-08T13:12:39;21.70;64.70
42085;DHT22;27746;52.228;20.890;2023-08-08T13:15:07;21.60;64.40
42085;DHT22;27746;52.228;20.890;2023-08-08T13:17:34;21.40;64.10
42085;DHT22;27746;52.228;20.890;2023-08-08T13:20:01;21.20;65.20
42085;DHT22;27746;52.228;20.890;2023-08-08T13:22:28;20.90;66.20
42085;DHT22;27746;52.228;20.890;2023-08-08T13:24:55;20.80;66.70
42085;DHT22;27746;52.228;20.890;2023-08-08T13:27:23;20.70;67.20
42085;DHT22;27746;52.228;20.890;2023-08-08T13:29:50;20.50;67.40
42085;DHT22;27746;52.228;20.890;2023-08-08T13:32:18;20.40;68.60
42085;DHT22;27746;52.228;20.890;2023-08-08T13:34:45;20.30;69.00
42085;DHT22;27746;52.228;20.890;2023-08-08T13:37:12;20.20;69.70
42085;DHT22;27746;52.228;20.890;2023-08-08T13:39:39;20.10;69.60
42085;DHT22;27746;52.228;20.890;2023-08-08T13:42:06;19.90;69.70
42085;DHT22;27746;52.228;20.890;2023-08-08T13:44:35;19.70;71.20
42085;DHT22;27746;52.228;20.890;2023-08-08T13:47:02;19.40;71.50
42085;DHT22;27746;52.228;20.890;2023-08-08T13:49:29;19.10;72.20
42085;DHT22;27746;52.228;20.890;2023-08-08T13:51:56;19.00;72.60
42085;DHT22;27746;52.228;20.890;2023-08-08T13:54:22;18.90;73.00
42085;DHT22;27746;52.228;20.890;2023-08-08T13:56:49;18.90;73.50
42085;DHT22;27746;52.228;20.890;2023-08-08T13:59:16;18.90;73.70
42085;DHT22;27746;52.228;20.890;2023-08-08T14:01:45;19.00;74.10
42085;DHT22;27746;52.228;20.890;2023-08-08T14:04:12;19.00;74.00
42085;DHT22;27746;52.228;20.890;2023-08-08T14:06:39;19.20;74.70
42085;DHT22;27746;52.228;20.890;2023-08-08T14:09:06;19.40;74.90
42085;DHT22;27746;52.228;20.890;2023-08-08T14:11:33;19.60;75.10
42085;DHT22;27746;52.228;20.890;2023-08-08T14:14:00;19.70;74.80
42085;DHT22;27746;52.228;20.890;2023-08-08T14:16:27;20.00;74.00
42085;DHT22;27746;52.228;20.890;2023-08-08T14:18:55;20.00;72.70
42085;DHT22;27746;52.228;20.890;2023-08-08T14:21:22;20.00;72.80
42085;DHT22;27746;52.228;20.890;2023-08-08T14:23:49;20.00;71.80
42085;DHT22;27746;52.228;20.890;2023-08-08T14:26:16;20.00;72.00
42085;DHT22;27746;52.228;20.890;2023-08-08T14:28:43;20.10;72.10
42085;DHT22;27746;52.228;20.890;2023-08-08T14:31:10;20.20;71.40
42085;DHT22;27746;52.228;20.890;2023-08-08T14:33:37;20.30;70.60
42085;DHT22;27746;52.228;20.890;2023-08-08T14:36:06;20.40;71.00
42085;DHT22;27746;52.228;20.890;2023-08-08T14:38:35;20.50;70.60
42085;DHT22;27746;52.228;20.890;2023-08-08T14:41:02;20.50;70.30
42085;DHT22;27746;52.228;20.890;2023-08-08T14:43:29;20.50;68.90
42085;DHT22;27746;52.228;20.890;2023-08-08T14:45:56;20.50;69.90
42085;DHT22;27746;52.228;20.890;2023-08-08T14:48:23;20.50;70.30
42085;DHT22;27746;52.228;20.890;2023-08-08T14:50:49;20.40;69.70
42085;DHT22;27746;52.228;20.890;2023-08-08T14:53:18;20.50;69.80
42085;DHT22;27746;52.228;20.890;2023-08-08T14:55:45;20.40;69.50
42085;DHT22;27746;52.228;20.890;2023-08-08T14:58:13;20.40;69.40
42085;DHT22;27746;52.228;20.890;2023-08-08T15:00:40;20.40;69.30
42085;DHT22;27746;52.228;20.890;2023-08-08T15:03:07;20.50;69.90
42085;DHT22;27746;52.228;20.890;2023-08-08T15:05:37;20.50;68.90
42085;DHT22;27746;52.228;20.890;2023-08-08T15:08:04;20.50;67.90
42085;DHT22;27746;52.228;20.890;2023-08-08T15:10:33;20.40;68.10
42085;DHT22;27746;52.228;20.890;2023-08-08T15:12:59;20.30;67.20
42085;DHT22;27746;52.228;20.890;2023-08-08T15:15:26;20.10;67.20
42085;DHT22;27746;52.228;20.890;2023-08-08T15:17:55;19.90;67.90